Time;durP1;ratioP1;P1;durP2;ratioP2;P2;SDS_P1;SDS_P2;PMS_P1;PMS_P2;Temp;Humidity;BMP_temperature;BMP_pressure;BME280_temperature;BME280_humidity;BME280_pressure;Samples;Min_cycle;Max_cycle;Signal;HPM_P1;HPM_P2
2021/06/19 00:00:31;;;;;;;1.75;1.70;;;;;;;;;;5012067;28;20066;-55
2021/06/19 00:02:59;;;;;;;3.33;1.50;;;;;;;;;;5014052;28;20077;-56
2021/06/19 00:05:26;;;;;;;1.23;1.20;;;;;;;;;;5008962;28;20128;-57
2021/06/19 00:07:53;;;;;;;1.60;1.55;;;;;;;;;;5015518;28;20121;-56
2021/06/19 00:10:20;;;;;;;3.45;2.05;;;;;;;;;;5011104;28;20104;-55
2021/06/19 00:12:48;;;;;;;2.17;2.17;;;;;;;;;;5011837;28;20175;-56
2021/06/19 00:15:17;;;;;;;2.38;1.88;;;;;;;;;;5012542;28;20080;-56
2021/06/19 00:17:44;;;;;;;1.70;1.60;;;;;;;;;;5011450;28;20124;-56
2021/06/19 00:20:16;;;;;;;2.15;1.40;;;;;;;;;;5012334;28;20046;-56
2021/06/19 00:22:43;;;;;;;2.90;1.40;;;;;;;;;;5010956;28;20040;-56
2021/06/19 00:25:11;;;;;;;1.58;1.58;;;;;;;;;;5010058;28;20042;-55
2021/06/19 00:27:38;;;;;;;2.60;1.75;;;;;;;;;;5013638;28;20068;-56
2021/06/19 00:30:06;;;;;;;1.50;1.40;;;;;;;;;;5007021;28;20036;-56
2021/06/19 00:32:33;;;;;;;2.88;2.08;;;;;;;;;;5000841;28;20053;-56
2021/06/19 00:35:00;;;;;;;1.50;1.50;;;;;;;;;;5013046;28;20092;-56
2021/06/19 00:37:27;;;;;;;2.72;1.73;;;;;;;;;;5008445;28;20041;-55
2021/06/19 00:39:53;;;;;;;4.70;1.47;;;;;;;;;;5012907;28;20046;-54
2021/06/19 00:42:21;;;;;;;4.40;2.05;;;;;;;;;;5010460;28;20699;-56
2021/06/19 00:44:48;;;;;;;2.13;1.42;;;;;;;;;;5008132;28;20034;-56
2021/06/19 00:47:14;;;;;;;3.97;1.60;;;;;;;;;;5015381;28;20034;-56
2021/06/19 00:49:41;;;;;;;2.20;1.70;;;;;;;;;;5009982;28;20069;-56
2021/06/19 00:52:08;;;;;;;2.30;2.17;;;;;;;;;;5022368;28;20532;-56
2021/06/19 00:54:35;;;;;;;1.80;1.70;;;;;;;;;;5009911;28;20042;-57
2021/06/19 00:57:01;;;;;;;3.15;1.67;;;;;;;;;;5008594;28;20088;-57
2021/06/19 00:59:29;;;;;;;3.17;1.50;;;;;;;;;;5014603;28;20655;-56
2021/06/19 01:01:56;;;;;;;1.92;1.83;;;;;;;;;;5004332;28;20042;-55
2021/06/19 01:04:22;;;;;;;1.88;1.70;;;;;;;;;;5012085;28;20108;-56
2021/06/19 01:06:49;;;;;;;1.73;1.58;;;;;;;;;;5011048;28;20061;-56
2021/06/19 01:09:16;;;;;;;1.95;1.88;;;;;;;;;;5010393;28;20520;-56
2021/06/19 01:11:43;;;;;;;4.45;2.40;;;;;;;;;;5011146;28;20044;-55
2021/06/19 01:14:10;;;;;;;2.60;2.40;;;;;;;;;;5011038;28;20088;-55
2021/06/19 01:16:37;;;;;;;2.60;2.50;;;;;;;;;;5002496;28;20042;-56
2021/06/19 01:19:04;;;;;;;2.13;2.03;;;;;;;;;;5008325;28;20529;-56
2021/06/19 01:21:31;;;;;;;2.55;2.05;;;;;;;;;;5009125;28;20073;-56
2021/06/19 01:23:58;;;;;;;2.88;2.67;;;;;;;;;;5010673;28;20438;-55
2021/06/19 01:26:26;;;;;;;2.35;2.17;;;;;;;;;;5010390;28;20037;-56
2021/06/19 01:28:53;;;;;;;2.95;2.75;;;;;;;;;;5011241;28;20064;-56
2021/06/19 01:31:21;;;;;;;4.28;2.65;;;;;;;;;;5009349;28;20453;-56
2021/06/19 01:33:48;;;;;;;2.38;1.80;;;;;;;;;;4996243;28;20042;-56
2021/06/19 01:36:15;;;;;;;2.28;2.03;;;;;;;;;;5011467;28;20088;-56
2021/06/19 01:38:43;;;;;;;3.05;1.48;;;;;;;;;;5008264;28;20077;-56
2021/06/19 01:41:15;;;;;;;4.05;1.83;;;;;;;;;;5010005;28;20038;-56
2021/06/19 01:43:42;;;;;;;2.67;2.17;;;;;;;;;;5012034;28;20699;-56
2021/06/19 01:46:09;;;;;;;4.43;2.15;;;;;;;;;;5008706;28;20034;-56
2021/06/19 01:48:36;;;;;;;2.35;2.10;;;;;;;;;;5012307;28;20038;-54
2021/06/19 01:51:06;;;;;;;1.90;1.80;;;;;;;;;;5008215;28;20099;-56
2021/06/19 01:53:32;;;;;;;2.83;1.88;;;;;;;;;;5009062;28;20038;-56
2021/06/19 01:55:59;;;;;;;2.45;2.35;;;;;;;;;;5010900;28;20080;-56
2021/06/19 01:58:26;;;;;;;4.40;2.35;;;;;;;;;;5008362;28;20041;-56
2021/06/19 02:00:54;;;;;;;2.88;2.17;;;;;;;;;;5011252;28;20070;-56
2021/06/19 02:03:21;;;;;;;2.03;1.98;;;;;;;;;;5007832;28;20041;-56
2021/06/19 02:05:48;;;;;;;2.03;1.92;;;;;;;;;;5008532;28;20046;-54
2021/06/19 02:08:15;;;;;;;3.38;2.13;;;;;;;;;;5011403;28;20046;-56
2021/06/19 02:10:42;;;;;;;2.28;2.17;;;;;;;;;;5009179;28;20088;-55
2021/06/19 02:13:09;;;;;;;4.28;3.05;;;;;;;;;;5011116;28;20045;-56
2021/06/19 02:15:37;;;;;;;4.68;2.53;;;;;;;;;;5008584;28;20069;-56
2021/06/19 02:18:05;;;;;;;2.42;2.33;;;;;;;;;;5008970;28;20112;-56
2021/06/19 02:20:32;;;;;;;2.20;2.20;;;;;;;;;;5010861;28;20038;-56
2021/06/19 02:22:59;;;;;;;3.05;2.42;;;;;;;;;;5007037;28;20096;-56
2021/06/19 02:25:27;;;;;;;15.13;2.50;;;;;;;;;;5009336;28;20070;-56
2021/06/19 02:28:02;;;;;;;2.72;2.30;;;;;;;;;;5009064;28;20539;-57
2021/06/19 02:30:30;;;;;;;2.90;2.67;;;;;;;;;;5010107;28;20037;-57
2021/06/19 02:32:57;;;;;;;2.25;2.15;;;;;;;;;;5009600;28;20034;-56
2021/06/19 02:35:26;;;;;;;3.00;2.80;;;;;;;;;;5006736;28;20063;-54
2021/06/19 02:37:53;;;;;;;3.85;2.42;;;;;;;;;;5007700;28;20080;-56
2021/06/19 02:40:19;;;;;;;2.25;2.15;;;;;;;;;;5011008;28;20042;-55
2021/06/19 02:42:47;;;;;;;3.60;3.38;;;;;;;;;;5010359;28;20141;-56
2021/06/19 02:45:14;;;;;;;2.53;2.08;;;;;;;;;;5006238;28;20532;-55
2021/06/19 02:47:42;;;;;;;3.17;2.15;;;;;;;;;;5005913;28;20041;-56
2021/06/19 02:50:09;;;;;;;2.65;2.50;;;;;;;;;;5007705;28;20031;-56
2021/06/19 02:52:43;;;;;;;2.17;2.17;;;;;;;;;;5009005;28;20482;-56
2021/06/19 02:55:11;;;;;;;2.72;2.50;;;;;;;;;;5006434;28;20049;-56
2021/06/19 02:57:37;;;;;;;1.98;1.98;;;;;;;;;;5010159;28;20498;-55
2021/06/19 03:00:05;;;;;;;2.25;2.13;;;;;;;;;;5008481;28;20823;-56
2021/06/19 03:02:32;;;;;;;2.78;2.10;;;;;;;;;;5001858;28;20548;-55
2021/06/19 03:04:59;;;;;;;2.35;2.20;;;;;;;;;;5001105;28;20117;-56
2021/06/19 03:07:26;;;;;;;3.10;2.53;;;;;;;;;;5003171;28;20076;-55
2021/06/19 03:09:53;;;;;;;2.22;2.05;;;;;;;;;;5009095;28;20053;-56
2021/06/19 03:12:19;;;;;;;2.78;2.67;;;;;;;;;;5006992;28;20490;-55
2021/06/19 03:14:48;;;;;;;2.25;2.15;;;;;;;;;;5006425;28;20068;-57
2021/06/19 03:17:15;;;;;;;2.55;2.45;;;;;;;;;;5010673;28;20046;-56
2021/06/19 03:19:41;;;;;;;2.15;2.05;;;;;;;;;;5006678;28;20050;-56
2021/06/19 03:22:08;;;;;;;2.72;2.60;;;;;;;;;;5008883;28;20066;-55
2021/06/19 03:24:39;;;;;;;2.45;2.35;;;;;;;;;;5010350;28;20042;-55
2021/06/19 03:27:07;;;;;;;3.28;2.97;;;;;;;;;;5007019;28;20053;-56
2021/06/19 03:29:34;;;;;;;2.08;1.98;;;;;;;;;;5007194;28;20050;-56
2021/06/19 03:32:01;;;;;;;1.73;1.73;;;;;;;;;;5006307;28;20053;-55
2021/06/19 03:34:28;;;;;;;2.38;2.30;;;;;;;;;;4998533;28;20038;-55
2021/06/19 03:37:01;;;;;;;6.13;2.22;;;;;;;;;;5010453;28;20462;-57
2021/06/19 03:39:32;;;;;;;2.10;2.03;;;;;;;;;;5007580;28;20095;-56
2021/06/19 03:41:59;;;;;;;3.90;2.42;;;;;;;;;;5009947;28;20093;-56
2021/06/19 03:44:26;;;;;;;2.38;2.25;;;;;;;;;;5007970;28;20088;-56
2021/06/19 03:46:53;;;;;;;2.45;2.25;;;;;;;;;;5008045;28;20034;-56
2021/06/19 03:49:20;;;;;;;3.55;3.25;;;;;;;;;;5006742;28;20065;-56
2021/06/19 03:51:47;;;;;;;3.03;2.75;;;;;;;;;;5007490;28;20045;-57
2021/06/19 03:54:14;;;;;;;2.40;2.08;;;;;;;;;;5009143;28;20038;-56
2021/06/19 03:56:42;;;;;;;5.07;2.58;;;;;;;;;;5008177;28;20134;-56
2021/06/19 03:59:09;;;;;;;3.55;3.35;;;;;;;;;;5005970;28;20125;-56
2021/06/19 04:01:35;;;;;;;3.92;3.17;;;;;;;;;;5010604;28;20745;-56
2021/06/19 04:04:02;;;;;;;3.22;3.03;;;;;;;;;;5008546;28;20049;-56
2021/06/19 04:06:29;;;;;;;2.67;2.58;;;;;;;;;;5006842;28;20069;-56
2021/06/19 04:08:55;;;;;;;3.17;2.97;;;;;;;;;;5009571;28;20108;-56
2021/06/19 04:11:22;;;;;;;3.33;2.67;;;;;;;;;;5006346;28;20128;-56
2021/06/19 04:13:49;;;;;;;3.70;3.50;;;;;;;;;;5010213;28;20050;-56
2021/06/19 04:16:15;;;;;;;4.03;3.72;;;;;;;;;;5007983;28;20096;-56
2021/06/19 04:18:42;;;;;;;3.10;2.88;;;;;;;;;;5007265;28;20054;-55
2021/06/19 04:21:09;;;;;;;3.95;3.58;;;;;;;;;;5003791;28;20050;-57
2021/06/19 04:23:36;;;;;;;3.53;3.42;;;;;;;;;;4996558;28;20042;-57
2021/06/19 04:26:03;;;;;;;3.75;3.55;;;;;;;;;;5017150;28;20864;-56
2021/06/19 04:28:30;;;;;;;2.80;2.67;;;;;;;;;;5011718;28;20034;-55
2021/06/19 04:30:59;;;;;;;2.88;2.67;;;;;;;;;;5008475;28;20046;-56
2021/06/19 04:33:32;;;;;;;3.28;3.08;;;;;;;;;;5012019;28;20841;-56
2021/06/19 04:35:59;;;;;;;2.95;2.85;;;;;;;;;;5011265;28;20034;-56
2021/06/19 04:38:25;;;;;;;3.65;3.45;;;;;;;;;;5013412;28;20033;-56
2021/06/19 04:41:05;;;;;;;3.53;3.40;;;;;;;;;;5009711;28;20129;-52
2021/06/19 04:43:41;;;;;;;2.47;2.40;;;;;;;;;;5009621;28;20041;-57
2021/06/19 04:46:08;;;;;;;3.25;2.70;;;;;;;;;;5014042;28;20088;-57
2021/06/19 04:48:35;;;;;;;4.95;3.00;;;;;;;;;;5008624;28;20057;-56
2021/06/19 04:51:02;;;;;;;3.42;3.33;;;;;;;;;;5008455;28;20674;-56
2021/06/19 04:53:29;;;;;;;3.90;3.70;;;;;;;;;;5011852;28;20038;-57
2021/06/19 04:55:56;;;;;;;4.28;3.97;;;;;;;;;;5010757;28;20049;-56
2021/06/19 04:58:24;;;;;;;3.55;3.35;;;;;;;;;;5012356;28;20073;-57
2021/06/19 05:00:51;;;;;;;2.63;2.53;;;;;;;;;;5009683;28;20441;-56
2021/06/19 05:03:18;;;;;;;2.58;2.40;;;;;;;;;;5009957;28;20053;-56
2021/06/19 05:05:45;;;;;;;3.35;3.25;;;;;;;;;;5007940;28;20062;-55
2021/06/19 05:08:11;;;;;;;2.45;2.15;;;;;;;;;;5011185;28;20567;-56
2021/06/19 05:10:38;;;;;;;3.13;3.03;;;;;;;;;;5012227;28;20053;-55
2021/06/19 05:13:05;;;;;;;3.95;3.08;;;;;;;;;;5010250;28;20065;-56
2021/06/19 05:15:32;;;;;;;8.63;3.50;;;;;;;;;;5010570;28;20074;-54
2021/06/19 05:17:59;;;;;;;3.72;2.60;;;;;;;;;;5012544;28;20046;-56
2021/06/19 05:20:27;;;;;;;1.65;1.55;;;;;;;;;;5008946;28;20068;-56
2021/06/19 05:22:58;;;;;;;2.08;1.77;;;;;;;;;;4999532;28;20211;-57
2021/06/19 05:25:25;;;;;;;1.40;1.40;;;;;;;;;;5009312;28;20057;-56
2021/06/19 05:27:52;;;;;;;3.10;2.72;;;;;;;;;;5009913;28;20140;-56
2021/06/19 05:30:20;;;;;;;2.67;2.30;;;;;;;;;;5009585;28;20574;-57
2021/06/19 05:32:47;;;;;;;1.80;1.70;;;;;;;;;;5007078;28;20125;-56
2021/06/19 05:35:14;;;;;;;1.65;1.55;;;;;;;;;;5000628;28;20556;-56
2021/06/19 05:37:40;;;;;;;1.90;1.50;;;;;;;;;;5007624;28;20038;-57
2021/06/19 05:40:08;;;;;;;2.60;2.40;;;;;;;;;;5008842;28;20077;-56
2021/06/19 05:42:34;;;;;;;2.95;2.60;;;;;;;;;;5011636;28;20065;-56
2021/06/19 05:45:01;;;;;;;1.45;1.35;;;;;;;;;;5011292;28;20049;-56
2021/06/19 05:47:28;;;;;;;3.55;2.15;;;;;;;;;;5008981;28;20061;-56
2021/06/19 05:49:55;;;;;;;2.78;2.20;;;;;;;;;;5009809;28;20052;-56
2021/06/19 05:52:22;;;;;;;7.22;2.75;;;;;;;;;;5003177;28;20045;-56
2021/06/19 05:54:49;;;;;;;2.22;2.13;;;;;;;;;;5011053;28;20107;-57
2021/06/19 05:57:16;;;;;;;2.53;2.28;;;;;;;;;;5008993;28;20129;-56
2021/06/19 05:59:43;;;;;;;3.38;1.90;;;;;;;;;;5009405;28;20100;-57
2021/06/19 06:02:09;;;;;;;3.13;2.20;;;;;;;;;;5010658;28;20041;-56
2021/06/19 06:04:37;;;;;;;2.97;2.08;;;;;;;;;;5008053;28;20088;-57
2021/06/19 06:07:04;;;;;;;2.28;2.22;;;;;;;;;;5009883;28;20046;-57
2021/06/19 06:09:31;;;;;;;3.75;1.88;;;;;;;;;;5008760;28;20121;-56
2021/06/19 06:11:57;;;;;;;2.45;2.22;;;;;;;;;;5007111;28;20046;-57
2021/06/19 06:14:24;;;;;;;10.05;3.03;;;;;;;;;;5015713;28;20481;-57
2021/06/19 06:16:51;;;;;;;3.95;2.58;;;;;;;;;;5008994;28;20053;-57
2021/06/19 06:19:19;;;;;;;2.88;2.70;;;;;;;;;;5007139;28;20092;-57
2021/06/19 06:21:48;;;;;;;2.83;2.72;;;;;;;;;;5006467;28;20038;-57
2021/06/19 06:24:15;;;;;;;2.58;2.47;;;;;;;;;;4998372;28;20057;-56
2021/06/19 06:26:42;;;;;;;3.08;2.95;;;;;;;;;;5011085;28;20050;-54
2021/06/19 06:29:09;;;;;;;5.38;2.83;;;;;;;;;;5006206;28;20644;-55
2021/06/19 06:31:49;;;;;;;2.00;1.90;;;;;;;;;;5008190;28;20042;-57
2021/06/19 06:34:17;;;;;;;2.08;1.98;;;;;;;;;;5011537;28;20046;-56
2021/06/19 06:36:44;;;;;;;2.92;1.83;;;;;;;;;;5008115;28;20141;-56
2021/06/19 06:39:11;;;;;;;2.85;1.88;;;;;;;;;;5009804;28;20042;-56
2021/06/19 06:41:37;;;;;;;3.30;1.67;;;;;;;;;;5006955;28;20458;-57
2021/06/19 06:44:04;;;;;;;1.77;1.75;;;;;;;;;;5004337;28;20426;-57
2021/06/19 06:46:31;;;;;;;1.02;1.02;;;;;;;;;;5010524;28;20066;-55
2021/06/19 06:48:58;;;;;;;1.17;1.10;;;;;;;;;;5007763;28;20056;-55
2021/06/19 06:51:25;;;;;;;1.40;1.40;;;;;;;;;;4999753;28;20034;-55
2021/06/19 06:53:52;;;;;;;1.20;1.20;;;;;;;;;;5006559;28;20066;-56
2021/06/19 06:56:19;;;;;;;2.10;1.33;;;;;;;;;;5007835;28;20088;-55
2021/06/19 06:58:45;;;;;;;3.25;1.83;;;;;;;;;;5010997;28;20046;-57
2021/06/19 07:01:12;;;;;;;1.40;1.30;;;;;;;;;;5006483;28;20473;-56
2021/06/19 07:03:39;;;;;;;1.58;1.02;;;;;;;;;;5011233;28;20038;-56
2021/06/19 07:06:06;;;;;;;1.30;1.20;;;;;;;;;;5009812;28;20383;-56
2021/06/19 07:08:32;;;;;;;1.98;1.40;;;;;;;;;;5005920;28;20045;-56
2021/06/19 07:10:59;;;;;;;1.33;1.13;;;;;;;;;;5009787;28;20116;-57
2021/06/19 07:13:26;;;;;;;2.15;1.20;;;;;;;;;;5009272;28;20535;-55
2021/06/19 07:15:53;;;;;;;2.35;1.30;;;;;;;;;;5009055;28;20049;-59
2021/06/19 07:18:19;;;;;;;2.10;2.00;;;;;;;;;;5008564;28;20096;-59
2021/06/19 07:20:46;;;;;;;1.95;1.52;;;;;;;;;;4999305;28;20053;-59
2021/06/19 07:23:13;;;;;;;3.55;1.60;;;;;;;;;;5003612;28;20054;-59
2021/06/19 07:25:40;;;;;;;3.33;1.10;;;;;;;;;;5004823;28;20461;-59
2021/06/19 07:28:06;;;;;;;0.90;0.90;;;;;;;;;;5008795;28;20042;-57
2021/06/19 07:30:33;;;;;;;1.10;1.10;;;;;;;;;;5008616;28;20046;-59
2021/06/19 07:33:01;;;;;;;1.88;0.90;;;;;;;;;;5007063;28;20052;-56
2021/06/19 07:35:28;;;;;;;1.83;0.90;;;;;;;;;;5001463;28;20050;-59
2021/06/19 07:37:56;;;;;;;2.92;1.00;;;;;;;;;;5008145;28;20047;-59
2021/06/19 07:40:23;;;;;;;1.13;1.00;;;;;;;;;;4995259;28;20077;-59
2021/06/19 07:42:50;;;;;;;1.55;1.00;;;;;;;;;;5002504;28;20483;-59
2021/06/19 07:45:17;;;;;;;3.05;1.25;;;;;;;;;;5000962;28;20053;-58
2021/06/19 07:47:44;;;;;;;1.10;1.00;;;;;;;;;;5004408;28;20041;-58
2021/06/19 07:50:12;;;;;;;2.28;0.90;;;;;;;;;;5004992;28;20491;-59
2021/06/19 07:52:41;;;;;;;1.27;1.27;;;;;;;;;;4995237;28;20038;-59
2021/06/19 07:55:08;;;;;;;2.45;1.65;;;;;;;;;;5014596;28;20046;-59
2021/06/19 07:57:34;;;;;;;1.95;1.00;;;;;;;;;;5005911;28;20099;-58
2021/06/19 08:00:02;;;;;;;1.00;1.00;;;;;;;;;;5014060;28;20462;-56
2021/06/19 08:02:29;;;;;;;2.45;1.00;;;;;;;;;;5010890;28;20027;-59
2021/06/19 08:04:56;;;;;;;2.15;1.00;;;;;;;;;;5006154;28;20038;-58
2021/06/19 08:07:22;;;;;;;2.25;1.00;;;;;;;;;;5014192;28;20145;-59
2021/06/19 08:09:49;;;;;;;1.23;1.10;;;;;;;;;;5008404;28;20085;-59
2021/06/19 08:12:16;;;;;;;1.58;1.00;;;;;;;;;;5011217;28;20042;-59
2021/06/19 08:14:43;;;;;;;1.95;0.98;;;;;;;;;;5009985;28;20137;-59
2021/06/19 08:17:19;;;;;;;2.33;0.93;;;;;;;;;;4999659;28;20052;-58
2021/06/19 08:19:46;;;;;;;1.85;0.90;;;;;;;;;;5009848;28;20042;-59
2021/06/19 08:22:13;;;;;;;0.90;0.90;;;;;;;;;;5008587;28;20072;-59
2021/06/19 08:24:40;;;;;;;3.53;0.90;;;;;;;;;;5010805;28;20046;-60
2021/06/19 08:27:07;;;;;;;1.50;1.05;;;;;;;;;;5012110;28;20046;-59
2021/06/19 08:29:38;;;;;;;1.80;0.90;;;;;;;;;;5009869;28;20034;-59
2021/06/19 08:32:07;;;;;;;1.63;0.80;;;;;;;;;;5011823;28;20042;-59
2021/06/19 08:34:34;;;;;;;2.72;0.80;;;;;;;;;;5011912;28;20052;-59
2021/06/19 08:37:01;;;;;;;1.92;0.90;;;;;;;;;;5003446;28;20446;-59
2021/06/19 08:39:27;;;;;;;1.45;0.80;;;;;;;;;;5014595;28;20542;-57
2021/06/19 08:41:55;;;;;;;1.13;0.80;;;;;;;;;;5011359;28;20050;-59
2021/06/19 08:44:23;;;;;;;1.30;0.80;;;;;;;;;;5012591;28;20073;-59
2021/06/19 08:47:03;;;;;;;2.60;0.85;;;;;;;;;;5010183;28;20040;-55
2021/06/19 08:49:30;;;;;;;1.77;0.70;;;;;;;;;;5010295;28;20045;-54
2021/06/19 08:51:59;;;;;;;0.73;0.73;;;;;;;;;;5001910;28;20077;-56
2021/06/19 08:54:27;;;;;;;0.90;0.90;;;;;;;;;;5006377;28;20445;-54
2021/06/19 08:56:54;;;;;;;2.40;0.80;;;;;;;;;;4993891;28;20510;-56
2021/06/19 08:59:21;;;;;;;1.77;0.80;;;;;;;;;;5006936;28;20046;-55
2021/06/19 09:01:48;;;;;;;1.55;0.82;;;;;;;;;;5009623;28;20049;-55
2021/06/19 09:04:15;;;;;;;0.88;0.80;;;;;;;;;;5013117;28;20120;-55
2021/06/19 09:06:43;;;;;;;1.08;0.80;;;;;;;;;;5009047;28;20042;-56
2021/06/19 09:09:14;;;;;;;1.05;1.00;;;;;;;;;;5009829;28;20076;-57
2021/06/19 09:11:47;;;;;;;0.70;0.70;;;;;;;;;;5012107;28;20096;-55
2021/06/19 09:14:14;;;;;;;2.15;0.80;;;;;;;;;;5010357;28;20707;-56
2021/06/19 09:16:42;;;;;;;1.65;0.80;;;;;;;;;;5011945;28;20120;-56
2021/06/19 09:19:23;;;;;;;3.08;0.88;;;;;;;;;;5007488;28;20069;-56
2021/06/19 09:22:09;;;;;;;1.23;0.90;;;;;;;;;;5007819;28;20045;-56
2021/06/19 09:24:46;;;;;;;0.80;0.80;;;;;;;;;;5000398;28;20038;-55
2021/06/19 09:27:31;;;;;;;1.25;0.75;;;;;;;;;;5009985;28;20069;-56
2021/06/19 09:30:04;;;;;;;0.70;0.70;;;;;;;;;;5009320;28;20030;-56
2021/06/19 09:32:31;;;;;;;;;;;;;;;;;;5011574;28;20048;-55
2021/06/19 09:35:15;;;;;;;1.70;1.00;;;;;;;;;;5009106;28;19925;-57
2021/06/19 09:37:42;;;;;;;3.53;1.25;;;;;;;;;;4997636;28;20126;-55
2021/06/19 09:40:28;;;;;;;1.60;0.70;;;;;;;;;;5009175;28;20058;-55
2021/06/19 09:43:07;;;;;;;0.80;0.80;;;;;;;;;;5007875;28;20048;-56
2021/06/19 09:45:34;;;;;;;3.25;0.65;;;;;;;;;;5010981;28;20121;-55
2021/06/19 09:48:00;;;;;;;0.73;0.63;;;;;;;;;;5010572;28;20038;-56
2021/06/19 09:50:28;;;;;;;3.75;0.70;;;;;;;;;;5004564;28;20084;-55
2021/06/19 09:52:55;;;;;;;2.47;0.80;;;;;;;;;;4995014;28;20145;-56
2021/06/19 09:55:21;;;;;;;0.60;0.60;;;;;;;;;;5009081;28;20054;-56
2021/06/19 09:57:49;;;;;;;0.60;0.60;;;;;;;;;;4998400;28;20136;-57
2021/06/19 10:00:15;;;;;;;1.10;0.80;;;;;;;;;;5006546;28;20125;-56
2021/06/19 10:02:43;;;;;;;0.80;0.60;;;;;;;;;;5003087;28;20407;-55
2021/06/19 10:05:11;;;;;;;1.52;0.60;;;;;;;;;;5011132;28;20041;-56
2021/06/19 10:07:38;;;;;;;1.60;0.70;;;;;;;;;;5009146;28;20044;-56
2021/06/19 10:10:12;;;;;;;1.27;0.60;;;;;;;;;;5000109;28;20066;-56
2021/06/19 10:12:39;;;;;;;0.88;0.50;;;;;;;;;;5022987;28;20129;-56
2021/06/19 10:15:13;;;;;;;0.75;0.60;;;;;;;;;;5004011;28;20034;-56
2021/06/19 10:17:41;;;;;;;1.13;0.63;;;;;;;;;;5005230;28;20417;-55
2021/06/19 10:20:08;;;;;;;1.00;0.60;;;;;;;;;;5001814;28;20045;-57
2021/06/19 10:22:36;;;;;;;1.95;0.90;;;;;;;;;;4997753;28;20121;-55
2021/06/19 10:25:08;;;;;;;1.15;0.40;;;;;;;;;;5004850;28;20526;-56
2021/06/19 10:27:39;;;;;;;1.63;0.40;;;;;;;;;;5000174;28;20061;-56
2021/06/19 10:30:06;;;;;;;0.50;0.50;;;;;;;;;;4999452;28;20080;-57
2021/06/19 10:32:51;;;;;;;1.55;0.40;;;;;;;;;;5010349;28;20390;-57
2021/06/19 10:35:20;;;;;;;0.70;0.50;;;;;;;;;;5008636;28;20045;-56
2021/06/19 10:37:48;;;;;;;4.28;0.50;;;;;;;;;;5011213;28;20038;-57
2021/06/19 10:40:17;;;;;;;1.13;0.50;;;;;;;;;;5006001;28;20120;-56
2021/06/19 10:42:44;;;;;;;0.60;0.60;;;;;;;;;;5004803;28;20065;-55
2021/06/19 10:45:21;;;;;;;2.25;0.50;;;;;;;;;;5010080;28;20482;-57
2021/06/19 10:48:05;;;;;;;3.20;0.50;;;;;;;;;;5002247;28;20057;-56
2021/06/19 10:50:39;;;;;;;5.25;0.50;;;;;;;;;;5009250;28;20105;-57
2021/06/19 10:53:09;;;;;;;0.40;0.40;;;;;;;;;;5003176;28;20042;-56
2021/06/19 10:55:42;;;;;;;0.40;0.40;;;;;;;;;;4996751;28;20157;-56
2021/06/19 10:58:24;;;;;;;0.40;0.40;;;;;;;;;;5010725;28;20602;-57
2021/06/19 11:00:52;;;;;;;0.50;0.50;;;;;;;;;;5006999;28;20130;-57
2021/06/19 11:03:38;;;;;;;0.75;0.43;;;;;;;;;;5009302;28;20119;-57
2021/06/19 11:06:23;;;;;;;0.40;0.40;;;;;;;;;;5009303;28;20045;-57
2021/06/19 11:09:26;;;;;;;1.30;0.40;;;;;;;;;;5004479;28;20046;-55
2021/06/19 11:11:56;;;;;;;2.20;0.40;;;;;;;;;;4966446;28;20185;-56
2021/06/19 11:14:41;;;;;;;0.77;0.50;;;;;;;;;;4967550;28;20046;-57
2021/06/19 11:17:09;;;;;;;0.43;0.40;;;;;;;;;;4965677;28;20438;-57
2021/06/19 11:19:42;;;;;;;0.85;0.40;;;;;;;;;;4962779;28;20058;-57
2021/06/19 11:22:41;;;;;;;0.73;0.50;;;;;;;;;;4966820;28;20137;-57
2021/06/19 11:25:10;;;;;;;0.93;0.40;;;;;;;;;;4910203;29;20064;-57
2021/06/19 11:27:57;;;;;;;0.40;0.40;;;;;;;;;;4910318;29;20067;-55
2021/06/19 11:30:39;;;;;;;1.20;0.40;;;;;;;;;;4898770;29;20222;-58
2021/06/19 11:33:21;;;;;;;1.95;0.40;;;;;;;;;;4908554;29;20051;-57
2021/06/19 11:35:48;;;;;;;0.40;0.40;;;;;;;;;;4907201;29;20645;-57
2021/06/19 11:38:16;;;;;;;1.90;0.50;;;;;;;;;;4912956;29;20044;-57
2021/06/19 11:40:43;;;;;;;0.88;0.40;;;;;;;;;;4912947;29;20214;-57
2021/06/19 11:43:11;;;;;;;0.40;0.40;;;;;;;;;;4914505;29;20047;-57
2021/06/19 11:45:38;;;;;;;1.23;0.50;;;;;;;;;;4916084;29;20130;-56
2021/06/19 11:48:07;;;;;;;0.65;0.40;;;;;;;;;;4931048;28;20566;-57
2021/06/19 11:50:35;;;;;;;0.70;0.50;;;;;;;;;;4951397;29;20062;-56
2021/06/19 11:53:22;;;;;;;0.40;0.40;;;;;;;;;;4953033;28;20544;-57
2021/06/19 11:55:49;;;;;;;0.50;0.50;;;;;;;;;;4881216;29;20057;-57
2021/06/19 11:58:16;;;;;;;1.15;0.50;;;;;;;;;;4895884;29;20080;-57
2021/06/19 12:00:52;;;;;;;1.30;0.43;;;;;;;;;;4928891;28;20522;-56
2021/06/19 12:03:22;;;;;;;1.33;0.30;;;;;;;;;;4969636;28;20054;-57
2021/06/19 12:05:49;;;;;;;2.15;0.50;;;;;;;;;;4970718;28;20074;-57
2021/06/19 12:08:25;;;;;;;0.80;0.40;;;;;;;;;;4960043;28;20047;-55
2021/06/19 12:10:52;;;;;;;;;;;;;;;;;;4970930;28;20119;-57
2021/06/19 12:13:29;;;;;;;0.52;0.50;;;;;;;;;;4970682;28;19990;-57
2021/06/19 12:15:56;;;;;;;0.77;0.50;;;;;;;;;;4959969;28;20137;-57
2021/06/19 12:18:22;;;;;;;0.95;0.50;;;;;;;;;;4971678;28;20050;-56
2021/06/19 12:21:15;;;;;;;1.05;0.50;;;;;;;;;;4968211;28;20146;-57
2021/06/19 12:23:42;;;;;;;1.42;0.60;;;;;;;;;;4965381;28;20051;-56
2021/06/19 12:26:09;;;;;;;0.60;0.60;;;;;;;;;;4970067;28;20603;-57
2021/06/19 12:28:41;;;;;;;0.40;0.40;;;;;;;;;;4970531;28;20085;-57
2021/06/19 12:31:08;;;;;;;2.17;0.40;;;;;;;;;;4970738;28;20459;-56
2021/06/19 12:33:36;;;;;;;0.40;0.40;;;;;;;;;;4999596;28;20434;-57
2021/06/19 12:36:04;;;;;;;0.40;0.40;;;;;;;;;;5010563;28;20088;-57
2021/06/19 12:38:30;;;;;;;1.33;0.38;;;;;;;;;;5013357;28;20120;-55
2021/06/19 12:40:58;;;;;;;1.23;0.40;;;;;;;;;;5010831;28;20108;-57
2021/06/19 12:43:25;;;;;;;1.17;0.80;;;;;;;;;;5012848;28;20049;-57
2021/06/19 12:45:53;;;;;;;6.07;0.50;;;;;;;;;;5009473;28;20121;-57
2021/06/19 12:48:36;;;;;;;0.40;0.40;;;;;;;;;;5010877;28;20041;-57
2021/06/19 12:51:05;;;;;;;2.30;0.40;;;;;;;;;;5016339;28;20162;-57
2021/06/19 12:53:33;;;;;;;0.30;0.30;;;;;;;;;;5005705;28;20088;-53
2021/06/19 12:56:10;;;;;;;0.40;0.40;;;;;;;;;;4996071;28;20038;-60
2021/06/19 12:58:38;;;;;;;0.73;0.30;;;;;;;;;;5012365;28;20046;-48
2021/06/19 13:01:17;;;;;;;0.40;0.40;;;;;;;;;;5010358;28;20116;-49
2021/06/19 13:03:51;;;;;;;0.68;0.45;;;;;;;;;;5007730;28;20030;-47
2021/06/19 13:06:34;;;;;;;0.47;0.40;;;;;;;;;;5011559;28;20073;-48
2021/06/19 13:09:02;;;;;;;3.15;0.40;;;;;;;;;;5001909;28;20045;-50
2021/06/19 13:11:32;;;;;;;0.50;0.50;;;;;;;;;;5011554;28;20042;-47
2021/06/19 13:14:00;;;;;;;0.30;0.30;;;;;;;;;;5010828;28;20105;-49
2021/06/19 13:16:29;;;;;;;0.30;0.30;;;;;;;;;;5026699;28;20037;-50
2021/06/19 13:19:03;;;;;;;1.17;0.30;;;;;;;;;;5010457;28;20049;-49
2021/06/19 13:21:31;;;;;;;0.47;0.30;;;;;;;;;;5009838;28;20038;-51
2021/06/19 13:23:58;;;;;;;0.30;0.30;;;;;;;;;;5010593;28;20112;-48
2021/06/19 13:26:26;;;;;;;1.95;0.70;;;;;;;;;;5012574;28;20042;-51
2021/06/19 13:29:01;;;;;;;1.15;0.40;;;;;;;;;;5011289;28;20084;-51
2021/06/19 13:31:30;;;;;;;1.50;0.40;;;;;;;;;;5011895;28;20075;-47
2021/06/19 13:34:00;;;;;;;1.40;0.30;;;;;;;;;;5009777;28;20461;-49
2021/06/19 13:36:39;;;;;;;1.30;0.68;;;;;;;;;;5009427;28;20514;-50
2021/06/19 13:39:05;;;;;;;0.40;0.40;;;;;;;;;;5005823;28;20046;-48
2021/06/19 13:41:35;;;;;;;0.60;0.40;;;;;;;;;;5005180;28;20117;-49
2021/06/19 13:44:02;;;;;;;0.30;0.30;;;;;;;;;;5011502;28;20080;-50
2021/06/19 13:46:29;;;;;;;1.23;0.30;;;;;;;;;;5010144;28;20061;-48
2021/06/19 13:48:58;;;;;;;1.00;0.40;;;;;;;;;;5008473;28;20042;-51
2021/06/19 13:51:25;;;;;;;1.65;0.35;;;;;;;;;;5008835;28;20573;-49
2021/06/19 13:53:52;;;;;;;1.90;0.30;;;;;;;;;;5006868;28;20041;-49
2021/06/19 13:56:19;;;;;;;1.33;0.95;;;;;;;;;;5009170;28;20084;-48
2021/06/19 13:58:46;;;;;;;1.13;0.30;;;;;;;;;;5010442;28;20586;-49
2021/06/19 14:01:13;;;;;;;0.40;0.40;;;;;;;;;;5008879;28;20045;-52
2021/06/19 14:03:42;;;;;;;0.85;0.30;;;;;;;;;;5011449;28;20042;-51
2021/06/19 14:06:12;;;;;;;0.40;0.40;;;;;;;;;;5008808;28;20046;-50
2021/06/19 14:08:56;;;;;;;1.10;0.43;;;;;;;;;;4996366;28;20088;-51
2021/06/19 14:11:24;;;;;;;0.38;0.38;;;;;;;;;;5005631;28;20061;-49
2021/06/19 14:13:51;;;;;;;3.17;0.40;;;;;;;;;;5009624;28;20042;-52
2021/06/19 14:16:18;;;;;;;1.15;0.50;;;;;;;;;;4993750;28;20124;-50
2021/06/19 14:18:45;;;;;;;1.10;0.40;;;;;;;;;;5004574;28;20038;-51
2021/06/19 14:21:14;;;;;;;0.52;0.52;;;;;;;;;;5005539;28;20060;-52
2021/06/19 14:23:41;;;;;;;0.30;0.30;;;;;;;;;;5014503;28;20071;-50
2021/06/19 14:26:10;;;;;;;2.72;0.50;;;;;;;;;;5010186;28;20049;-51
2021/06/19 14:28:38;;;;;;;1.58;0.30;;;;;;;;;;4997086;28;20051;-50
2021/06/19 14:31:05;;;;;;;0.90;0.30;;;;;;;;;;5010099;28;20100;-50
2021/06/19 14:33:32;;;;;;;0.98;0.30;;;;;;;;;;5008310;28;20088;-50
2021/06/19 14:35:59;;;;;;;1.05;0.40;;;;;;;;;;5010590;28;20056;-50
2021/06/19 14:38:26;;;;;;;3.42;0.40;;;;;;;;;;5008559;28;20088;-51
2021/06/19 14:40:53;;;;;;;2.05;0.40;;;;;;;;;;5009403;28;20073;-50
2021/06/19 14:43:20;;;;;;;4.13;0.40;;;;;;;;;;5003407;28;20069;-51
2021/06/19 14:45:47;;;;;;;0.40;0.40;;;;;;;;;;5001105;28;20066;-47
2021/06/19 14:48:16;;;;;;;1.55;0.40;;;;;;;;;;5009417;28;20125;-49
2021/06/19 14:50:46;;;;;;;0.52;0.40;;;;;;;;;;5007171;28;20049;-48
2021/06/19 14:53:13;;;;;;;2.30;0.40;;;;;;;;;;5006898;28;20046;-48